sensor_id;sensor_type;location;lat;lon;timestamp;temperature;humidity
1205;DHT22;592;48.764;9.174;2023-08-08T06:26:28;16.20;99.90
1205;DHT22;592;48.764;9.174;2023-08-08T06:28:58;16.20;99.90
1205;DHT22;592;48.764;9.174;2023-08-08T06:31:35;16.40;99.90
1205;DHT22;592;48.764;9.174;2023-08-08T06:34:22;16.60;99.90
1205;DHT22;592;48.764;9.174;2023-08-08T06:36:48;16.70;99.90
1205;DHT22;592;48.764;9.174;2023-08-08T06:39:15;16.60;99.90
1205;DHT22;592;48.764;9.174;2023-08-08T06:41:46;16.90;99.90
1205;DHT22;592;48.764;9.174;2023-08-08T06:50:00;16.70;99.90
1205;DHT22;592;48.764;9.174;2023-08-08T08:44:50;18.70;98.60
1205;DHT22;592;48.764;9.174;2023-08-08T08:47:20;18.90;98.20
1205;DHT22;592;48.764;9.174;2023-08-08T08:49:52;19.30;98.60
1205;DHT22;592;48.764;9.174;2023-08-08T08:52:20;19.50;98.20
1205;DHT22;592;48.764;9.174;2023-08-08T08:54:48;19.20;98.00
1205;DHT22;592;48.764;9.174;2023-08-08T08:57:16;19.20;98.10
1205;DHT22;592;48.764;9.174;2023-08-08T08:59:44;19.40;97.60
1205;DHT22;592;48.764;9.174;2023-08-08T09:02:18;19.30;97.40
1205;DHT22;592;48.764;9.174;2023-08-08T09:04:45;19.50;97.70
1205;DHT22;592;48.764;9.174;2023-08-08T15:11:50;21.40;90.20
1205;DHT22;592;48.764;9.174;2023-08-08T17:54:48;20.60;93.90
1205;DHT22;592;48.764;9.174;2023-08-08T17:57:17;20.50;93.50
1205;DHT22;592;48.764;9.174;2023-08-08T17:59:49;20.50;93.30
1205;DHT22;592;48.764;9.174;2023-08-08T18:02:16;20.60;93.40
1205;DHT22;592;48.764;9.174;2023-08-08T18:04:45;20.30;93.50
1205;DHT22;592;48.764;9.174;2023-08-08T18:07:13;20.20;93.80
1205;DHT22;592;48.764;9.174;2023-08-08T18:09:40;20.20;93.50
1205;DHT22;592;48.764;9.174;2023-08-08T18:12:12;20.30;93.40
1205;DHT22;592;48.764;9.174;2023-08-08T18:14:40;20.20;93.40
1205;DHT22;592;48.764;9.174;2023-08-08T18:17:07;20.30;93.40
1205;DHT22;592;48.764;9.174;2023-08-08T18:19:35;20.20;93.40
1205;DHT22;592;48.764;9.174;2023-08-08T18:22:08;20.20;93.50
1205;DHT22;592;48.764;9.174;2023-08-08T18:24:37;20.20;93.30
1205;DHT22;592;48.764;9.174;2023-08-08T18:27:07;20.00;93.60
1205;DHT22;592;48.764;9.174;2023-08-08T18:29:59;19.90;93.90
1205;DHT22;592;48.764;9.174;2023-08-08T18:32:28;20.00;93.80
1205;DHT22;592;48.764;9.174;2023-08-08T18:35:03;20.00;93.70
1205;DHT22;592;48.764;9.174;2023-08-08T18:37:33;20.00;93.90
1205;DHT22;592;48.764;9.174;2023-08-08T18:40:00;20.00;93.90
1205;DHT22;592;48.764;9.174;2023-08-08T18:42:29;20.00;93.80
1205;DHT22;592;48.764;9.174;2023-08-08T18:44:57;20.00;93.70
1205;DHT22;592;48.764;9.174;2023-08-08T18:47:25;20.00;93.90
1205;DHT22;592;48.764;9.174;2023-08-08T18:49:56;20.00;93.90
1205;DHT22;592;48.764;9.174;2023-08-08T18:55:24;19.80;93.90
1205;DHT22;592;48.764;9.174;2023-08-08T18:57:54;19.80;94.40
1205;DHT22;592;48.764;9.174;2023-08-08T19:00:23;19.70;94.30
1205;DHT22;592;48.764;9.174;2023-08-08T19:02:51;19.80;94.00
1205;DHT22;592;48.764;9.174;2023-08-08T19:05:29;19.80;94.20
1205;DHT22;592;48.764;9.174;2023-08-08T19:07:59;19.80;93.90
1205;DHT22;592;48.764;9.174;2023-08-08T19:10:26;19.80;94.50
1205;DHT22;592;48.764;9.174;2023-08-08T19:12:56;19.70;94.40
1205;DHT22;592;48.764;9.174;2023-08-08T19:15:24;19.70;94.90
1205;DHT22;592;48.764;9.174;2023-08-08T19:17:56;19.60;95.00
1205;DHT22;592;48.764;9.174;2023-08-08T19:20:24;19.50;94.90
1205;DHT22;592;48.764;9.174;2023-08-08T19:22:54;19.50;94.80
1205;DHT22;592;48.764;9.174;2023-08-08T19:25:22;19.60;95.00
1205;DHT22;592;48.764;9.174;2023-08-08T19:27:57;19.60;95.30
1205;DHT22;592;48.764;9.174;2023-08-08T19:30:24;19.60;94.80
1205;DHT22;592;48.764;9.174;2023-08-08T19:32:52;19.50;95.30
1205;DHT22;592;48.764;9.174;2023-08-08T19:35:19;19.50;95.10
1205;DHT22;592;48.764;9.174;2023-08-08T19:37:51;19.60;95.10
1205;DHT22;592;48.764;9.174;2023-08-08T19:40:24;19.50;95.90
1205;DHT22;592;48.764;9.174;2023-08-08T19:42:54;19.40;96.00
1205;DHT22;592;48.764;9.174;2023-08-08T19:45:21;19.40;96.20
1205;DHT22;592;48.764;9.174;2023-08-08T19:47:50;19.40;96.70
1205;DHT22;592;48.764;9.174;2023-08-08T19:50:22;19.10;97.10
1205;DHT22;592;48.764;9.174;2023-08-08T19:52:49;19.00;97.20
1205;DHT22;592;48.764;9.174;2023-08-08T19:55:18;19.10;97.10
1205;DHT22;592;48.764;9.174;2023-08-08T19:57:45;19.10;96.50
1205;DHT22;592;48.764;9.174;2023-08-08T20:00:12;19.10;96.90
1205;DHT22;592;48.764;9.174;2023-08-08T20:02:40;19.20;96.40
1205;DHT22;592;48.764;9.174;2023-08-08T20:05:10;19.30;96.50
1205;DHT22;592;48.764;9.174;2023-08-08T20:07:40;19.20;96.50
1205;DHT22;592;48.764;9.174;2023-08-08T20:10:08;19.30;96.10
1205;DHT22;592;48.764;9.174;2023-08-08T20:12:35;19.30;96.20
1205;DHT22;592;48.764;9.174;2023-08-08T20:15:02;19.20;96.20
1205;DHT22;592;48.764;9.174;2023-08-08T20:17:32;19.30;96.00
1205;DHT22;592;48.764;9.174;2023-08-08T20:19:59;19.10;97.30
1205;DHT22;592;48.764;9.174;2023-08-08T20:22:29;19.00;97.60
1205;DHT22;592;48.764;9.174;2023-08-08T20:24:57;18.90;97.90
1205;DHT22;592;48.764;9.174;2023-08-08T20:27:24;18.90;97.90
1205;DHT22;592;48.764;9.174;2023-08-08T20:29:51;18.70;98.40
1205;DHT22;592;48.764;9.174;2023-08-08T20:32:21;18.90;97.40
1205;DHT22;592;48.764;9.174;2023-08-08T20:34:53;18.80;98.30
1205;DHT22;592;48.764;9.174;2023-08-08T20:37:24;18.50;98.60
1205;DHT22;592;48.764;9.174;2023-08-08T20:39:50;18.50;98.80
1205;DHT22;592;48.764;9.174;2023-08-08T20:42:20;18.50;98.60
1205;DHT22;592;48.764;9.174;2023-08-08T20:44:47;18.40;98.60
1205;DHT22;592;48.764;9.174;2023-08-08T20:47:17;18.40;98.80
1205;DHT22;592;48.764;9.174;2023-08-08T20:49:43;18.40;98.80
1205;DHT22;592;48.764;9.174;2023-08-08T20:52:12;18.50;98.30
1205;DHT22;592;48.764;9.174;2023-08-08T20:54:38;18.50;98.20
1205;DHT22;592;48.764;9.174;2023-08-08T20:57:08;18.50;98.50
1205;DHT22;592;48.764;9.174;2023-08-08T20:59:37;18.50;98.20
1205;DHT22;592;48.764;9.174;2023-08-08T21:02:07;18.60;97.80
1205;DHT22;592;48.764;9.174;2023-08-08T21:04:37;18.60;97.60
1205;DHT22;592;48.764;9.174;2023-08-08T21:07:04;18.60;98.50
1205;DHT22;592;48.764;9.174;2023-08-08T21:09:31;18.40;99.20
1205;DHT22;592;48.764;9.174;2023-08-08T21:11:58;18.30;99.10
1205;DHT22;592;48.764;9.174;2023-08-08T21:14:44;18.10;99.00
1205;DHT22;592;48.764;9.174;2023-08-08T21:17:11;18.30;98.90
1205;DHT22;592;48.764;9.174;2023-08-08T21:19:38;18.20;99.40
1205;DHT22;592;48.764;9.174;2023-08-08T21:22:05;18.30;98.90
1205;DHT22;592;48.764;9.174;2023-08-08T21:24:32;18.30;98.70
1205;DHT22;592;48.764;9.174;2023-08-08T21:26:59;18.20;99.00
1205;DHT22;592;48.764;9.174;2023-08-08T21:29:36;18.20;99.10
